createdAt,value
2023-04-05T00:01:07.829Z,13.98
2023-04-05T00:07:54.458Z,11.50
2023-04-05T00:14:36.803Z,11.27
2023-04-05T00:21:23.142Z,7.53
2023-04-05T00:28:05.610Z,12.30
2023-04-05T00:34:47.826Z,9.30
2023-04-05T00:41:30.111Z,6.50
2023-04-05T00:48:12.747Z,8.43
2023-04-05T00:54:55.021Z,16.80
2023-04-05T01:01:41.200Z,8.55
2023-04-05T01:08:31.552Z,9.07
2023-04-05T01:15:14.094Z,8.32
2023-04-05T01:22:38.181Z,7.72
2023-04-05T01:29:32.169Z,14.93
2023-04-05T01:36:28.821Z,10.82
2023-04-05T01:43:17.997Z,9.75
2023-04-05T01:50:00.222Z,11.98
2023-04-05T01:56:42.648Z,7.95
2023-04-05T02:03:25.870Z,7.50
2023-04-05T02:10:09.327Z,9.63
2023-04-05T02:16:55.773Z,7.70
2023-04-05T02:23:39.948Z,8.50
2023-04-05T02:30:22.091Z,8.80
2023-04-05T02:37:04.481Z,10.48
2023-04-05T02:43:46.844Z,8.10
2023-04-05T02:50:29.036Z,9.05
2023-04-05T02:57:11.767Z,9.20
2023-04-05T03:04:04.468Z,8.23
2023-04-05T03:10:51.075Z,8.20
2023-04-05T03:17:33.488Z,9.48
2023-04-05T03:24:18.482Z,4.57
2023-04-05T03:31:01.160Z,8.40
2023-04-05T03:37:43.575Z,8.27
2023-04-05T03:44:25.808Z,9.43
2023-04-05T03:51:09.562Z,9.32
2023-04-05T03:57:53.562Z,11.10
2023-04-05T04:04:44.487Z,13.32
2023-04-05T04:11:27.296Z,14.73
2023-04-05T04:18:10.262Z,17.50
2023-04-05T04:25:12.749Z,13.75
2023-04-05T04:32:22.608Z,11.80
2023-04-05T04:39:39.745Z,8.20
2023-04-05T04:46:43.728Z,12.35
2023-04-05T04:53:31.883Z,14.48
2023-04-05T05:00:18.226Z,9.60
2023-04-05T05:07:01.597Z,13.30
2023-04-05T05:13:43.800Z,14.77
2023-04-05T05:20:33.142Z,12.25
2023-04-05T05:27:15.523Z,11.18
2023-04-05T05:33:57.750Z,11.25
2023-04-05T05:40:40.413Z,8.48
2023-04-05T05:47:22.825Z,8.52
2023-04-05T05:54:05.144Z,9.95
2023-04-05T06:00:49.907Z,9.07
2023-04-05T06:14:19.127Z,6.20
2023-04-05T06:21:01.352Z,10.55
2023-04-05T06:27:43.539Z,8.98
2023-04-05T06:34:25.882Z,4.18
2023-04-05T06:41:08.223Z,9.63
2023-04-05T06:47:50.651Z,8.05
2023-04-05T06:54:34.733Z,5.30
2023-04-05T07:01:17.695Z,4.85
2023-04-05T07:07:59.969Z,9.40
2023-04-05T07:14:42.379Z,6.97
2023-04-05T07:21:24.708Z,6.07
2023-04-05T07:28:07.025Z,6.32
2023-04-05T07:34:49.522Z,6.35
2023-04-05T07:41:31.901Z,5.80
2023-04-05T07:48:13.994Z,7.18
2023-04-05T07:54:56.823Z,7.90
2023-04-05T08:01:38.961Z,3.47
2023-04-05T08:08:21.742Z,3.97
2023-04-05T08:15:04.709Z,5.63
2023-04-05T08:21:46.987Z,5.55
2023-04-05T08:28:29.323Z,7.22
2023-04-05T08:35:11.489Z,4.22
2023-04-05T08:42:18.502Z,11.82
2023-04-05T08:49:06.328Z,5.68
2023-04-05T08:55:56.619Z,7.38
2023-04-05T09:02:39.706Z,5.97
2023-04-05T09:09:22.818Z,11.70
2023-04-05T09:16:06.110Z,5.93
2023-04-05T09:22:48.601Z,13.25
2023-04-05T09:29:31.281Z,7.05
2023-04-05T09:36:19.061Z,10.23
2023-04-05T09:43:01.565Z,12.82
2023-04-05T09:49:44.154Z,11.90
2023-04-05T09:56:28.257Z,7.80
2023-04-05T10:03:10.538Z,6.25
2023-04-05T10:09:52.888Z,8.15
2023-04-05T10:16:59.198Z,13.15
2023-04-05T10:23:46.508Z,6.35
2023-04-05T10:30:46.484Z,10.45
2023-04-05T10:37:48.404Z,9.10
2023-04-05T10:44:33.259Z,12.73
2023-04-05T10:51:16.175Z,8.32
2023-04-05T10:57:59.391Z,8.23
2023-04-05T11:04:42.696Z,10.95
2023-04-05T11:11:27.209Z,8.70
2023-04-05T11:18:09.745Z,5.47
2023-04-05T11:24:58.372Z,5.10
2023-04-05T11:32:06.232Z,7.50
2023-04-05T11:38:48.413Z,4.63
2023-04-05T11:45:32.425Z,8.48
2023-04-05T11:52:21.311Z,9.85
2023-04-05T11:59:03.730Z,10.95
2023-04-05T12:05:51.323Z,20.17
2023-04-05T12:12:40.936Z,24.35
2023-04-05T12:19:23.796Z,13.40
2023-04-05T12:26:08.393Z,21.63
2023-04-05T12:32:55.480Z,13.60
2023-04-05T12:39:38.797Z,15.10
2023-04-05T12:46:21.280Z,18.15
2023-04-05T12:53:07.344Z,7.85
2023-04-05T12:59:49.569Z,13.18
2023-04-05T13:06:32.185Z,17.35
2023-04-05T13:13:16.453Z,14.38
2023-04-05T13:19:58.928Z,21.20
2023-04-05T13:26:41.282Z,14.00
2023-04-05T13:33:23.495Z,11.90
2023-04-05T13:40:09.809Z,12.23
2023-04-05T13:46:51.978Z,10.38
2023-04-05T13:53:34.176Z,15.50
2023-04-05T14:00:16.823Z,9.88
2023-04-05T14:06:59.064Z,6.97
2023-04-05T14:13:41.268Z,7.85
2023-04-05T14:20:23.733Z,7.28
2023-04-05T14:27:06.235Z,7.68
2023-04-05T14:33:48.389Z,5.35
2023-04-05T14:40:30.784Z,5.47
2023-04-05T14:47:12.977Z,8.98
2023-04-05T14:53:56.079Z,10.00
2023-04-05T15:00:38.411Z,14.40
2023-04-05T15:07:20.779Z,10.60
2023-04-05T15:14:03.139Z,9.88
2023-04-05T15:20:45.655Z,6.90
2023-04-05T15:27:27.883Z,15.40
2023-04-05T15:34:10.083Z,13.82
2023-04-05T15:40:52.697Z,11.93
2023-04-05T15:47:34.979Z,9.98
2023-04-05T15:54:19.022Z,6.03
2023-04-05T16:01:01.327Z,4.90
2023-04-05T16:07:44.756Z,11.90
2023-04-05T16:14:27.865Z,9.35
2023-04-05T16:21:10.402Z,7.05
2023-04-05T16:27:52.690Z,10.52
2023-04-05T16:34:34.876Z,8.68
2023-04-05T16:41:17.136Z,27.42
2023-04-05T16:47:59.573Z,30.65
2023-04-05T16:54:41.850Z,39.45
2023-04-05T17:01:25.038Z,66.57
2023-04-05T17:08:07.301Z,81.63
2023-04-05T17:14:49.796Z,143.25
2023-04-05T17:21:32.813Z,180.05
2023-04-05T17:28:15.409Z,203.93
2023-04-05T17:34:57.610Z,184.25
2023-04-05T17:41:39.817Z,176.55
2023-04-05T17:48:22.198Z,171.77
2023-04-05T17:55:05.033Z,118.05
2023-04-05T18:01:51.535Z,94.45
2023-04-05T18:08:34.109Z,137.00
2023-04-05T18:15:18.374Z,109.18
2023-04-05T18:22:00.755Z,39.87
2023-04-05T18:28:43.037Z,54.58
2023-04-05T18:35:27.979Z,43.40
2023-04-05T18:42:10.175Z,24.10
2023-04-05T18:48:55.621Z,28.70
2023-04-05T18:55:37.968Z,27.10
2023-04-05T19:02:20.341Z,23.63
2023-04-05T19:09:02.817Z,25.95
2023-04-05T19:15:46.188Z,30.42
2023-04-05T19:22:28.601Z,25.65
2023-04-05T19:29:10.894Z,28.38
2023-04-05T19:35:54.291Z,27.55
2023-04-05T19:42:36.486Z,30.45
2023-04-05T19:49:39.107Z,27.52
2023-04-05T19:56:32.292Z,25.30
2023-04-05T20:03:32.789Z,24.58
2023-04-05T20:10:16.445Z,25.85
2023-04-05T20:16:59.085Z,27.40
2023-04-05T20:23:43.759Z,26.17
2023-04-05T20:30:25.981Z,27.87
2023-04-05T20:37:11.157Z,33.38
2023-04-05T20:50:37.130Z,28.42
2023-04-05T20:57:19.307Z,29.27
2023-04-05T21:04:01.893Z,34.28
2023-04-05T21:10:44.414Z,31.42
2023-04-05T21:17:26.745Z,29.08
2023-04-05T21:24:09.131Z,31.45
2023-04-05T21:30:52.477Z,24.25
2023-04-05T21:37:35.334Z,30.45
2023-04-05T21:44:17.568Z,29.42
2023-04-05T21:50:59.707Z,28.65
2023-04-05T21:57:41.915Z,32.97
2023-04-05T22:04:26.508Z,35.38
2023-04-05T22:11:08.827Z,36.60
2023-04-05T22:17:51.043Z,36.50
2023-04-05T22:24:52.190Z,37.28
2023-04-05T22:31:53.283Z,34.85
2023-04-05T22:38:54.639Z,36.83
2023-04-05T22:45:56.244Z,29.92
2023-04-05T22:52:38.651Z,32.42
2023-04-05T22:59:23.113Z,32.80
2023-04-05T23:06:05.607Z,22.07
2023-04-05T23:12:48.442Z,22.60
2023-04-05T23:19:49.429Z,21.00
2023-04-05T23:26:31.799Z,23.27
2023-04-05T23:33:32.876Z,23.10
2023-04-05T23:40:33.547Z,25.23
2023-04-05T23:47:16.242Z,15.82
2023-04-05T23:53:58.986Z,20.15
